sensor_id;sensor_type;location;lat;lon;timestamp;temperature;humidity
19555;DHT22;9924;50.828;6.440;2023-04-03T00:02:08;2.50;99.90
19555;DHT22;9924;50.828;6.440;2023-04-03T00:04:53;2.50;99.90
19555;DHT22;9924;50.828;6.440;2023-04-03T00:07:37;2.50;99.90
19555;DHT22;9924;50.828;6.440;2023-04-03T00:10:21;2.60;99.90
19555;DHT22;9924;50.828;6.440;2023-04-03T00:13:07;2.70;99.90
19555;DHT22;9924;50.828;6.440;2023-04-03T00:15:52;2.70;99.90
19555;DHT22;9924;50.828;6.440;2023-04-03T00:18:37;2.80;99.90
19555;DHT22;9924;50.828;6.440;2023-04-03T00:21:22;2.90;99.90
19555;DHT22;9924;50.828;6.440;2023-04-03T00:24:06;2.90;99.90
19555;DHT22;9924;50.828;6.440;2023-04-03T00:26:50;2.90;99.90
19555;DHT22;9924;50.828;6.440;2023-04-03T00:29:35;2.90;99.90
19555;DHT22;9924;50.828;6.440;2023-04-03T00:32:20;2.80;99.90
19555;DHT22;9924;50.828;6.440;2023-04-03T00:35:04;2.80;99.90
19555;DHT22;9924;50.828;6.440;2023-04-03T00:37:51;2.80;99.90
19555;DHT22;9924;50.828;6.440;2023-04-03T00:40:38;2.90;99.90
19555;DHT22;9924;50.828;6.440;2023-04-03T00:43:24;2.90;99.90
19555;DHT22;9924;50.828;6.440;2023-04-03T00:46:09;2.90;99.90
19555;DHT22;9924;50.828;6.440;2023-04-03T00:48:53;2.90;99.90
19555;DHT22;9924;50.828;6.440;2023-04-03T00:51:37;3.00;99.90
19555;DHT22;9924;50.828;6.440;2023-04-03T00:54:22;3.00;99.90
19555;DHT22;9924;50.828;6.440;2023-04-03T00:57:07;3.00;99.90
19555;DHT22;9924;50.828;6.440;2023-04-03T00:59:57;3.00;99.90
19555;DHT22;9924;50.828;6.440;2023-04-03T01:02:44;3.00;99.90
19555;DHT22;9924;50.828;6.440;2023-04-03T01:05:29;3.00;99.90
19555;DHT22;9924;50.828;6.440;2023-04-03T01:08:13;3.00;99.90
19555;DHT22;9924;50.828;6.440;2023-04-03T01:10:59;3.00;99.90
19555;DHT22;9924;50.828;6.440;2023-04-03T01:13:44;3.00;99.90
19555;DHT22;9924;50.828;6.440;2023-04-03T01:16:29;3.00;99.90
19555;DHT22;9924;50.828;6.440;2023-04-03T01:19:16;3.10;99.90
19555;DHT22;9924;50.828;6.440;2023-04-03T01:22:18;3.00;99.90
19555;DHT22;9924;50.828;6.440;2023-04-03T01:25:03;3.00;99.90
19555;DHT22;9924;50.828;6.440;2023-04-03T01:27:48;3.00;99.90
19555;DHT22;9924;50.828;6.440;2023-04-03T01:30:35;3.00;99.90
19555;DHT22;9924;50.828;6.440;2023-04-03T01:33:21;3.00;99.90
19555;DHT22;9924;50.828;6.440;2023-04-03T01:36:06;3.00;99.90
19555;DHT22;9924;50.828;6.440;2023-04-03T01:38:53;2.90;99.90
19555;DHT22;9924;50.828;6.440;2023-04-03T01:41:37;2.90;99.90
19555;DHT22;9924;50.828;6.440;2023-04-03T01:44:21;2.90;99.90
19555;DHT22;9924;50.828;6.440;2023-04-03T01:47:06;2.80;99.90
19555;DHT22;9924;50.828;6.440;2023-04-03T01:49:51;2.60;99.90
19555;DHT22;9924;50.828;6.440;2023-04-03T01:52:35;2.60;99.90
19555;DHT22;9924;50.828;6.440;2023-04-03T01:55:20;2.60;99.90
19555;DHT22;9924;50.828;6.440;2023-04-03T01:58:04;2.60;99.90
19555;DHT22;9924;50.828;6.440;2023-04-03T02:00:49;2.60;99.90
19555;DHT22;9924;50.828;6.440;2023-04-03T02:03:33;2.60;99.90
19555;DHT22;9924;50.828;6.440;2023-04-03T02:06:18;2.50;99.90
19555;DHT22;9924;50.828;6.440;2023-04-03T02:09:03;2.50;99.90
19555;DHT22;9924;50.828;6.440;2023-04-03T02:11:47;2.40;99.90
19555;DHT22;9924;50.828;6.440;2023-04-03T02:14:32;2.30;99.90
19555;DHT22;9924;50.828;6.440;2023-04-03T02:17:16;2.30;99.90
19555;DHT22;9924;50.828;6.440;2023-04-03T02:20:01;2.20;99.90
19555;DHT22;9924;50.828;6.440;2023-04-03T02:22:45;2.20;99.90
19555;DHT22;9924;50.828;6.440;2023-04-03T02:25:31;2.10;99.90
19555;DHT22;9924;50.828;6.440;2023-04-03T02:28:15;2.00;99.90
19555;DHT22;9924;50.828;6.440;2023-04-03T02:30:59;2.00;99.90
19555;DHT22;9924;50.828;6.440;2023-04-03T02:33:45;1.80;99.90
19555;DHT22;9924;50.828;6.440;2023-04-03T02:36:29;1.80;99.90
19555;DHT22;9924;50.828;6.440;2023-04-03T02:39:13;1.70;99.90
19555;DHT22;9924;50.828;6.440;2023-04-03T02:41:58;1.60;99.90
19555;DHT22;9924;50.828;6.440;2023-04-03T02:44:42;1.60;99.90
19555;DHT22;9924;50.828;6.440;2023-04-03T02:47:27;1.50;99.90
19555;DHT22;9924;50.828;6.440;2023-04-03T02:50:12;1.50;99.90
19555;DHT22;9924;50.828;6.440;2023-04-03T02:52:56;1.50;99.90
19555;DHT22;9924;50.828;6.440;2023-04-03T02:55:40;1.40;99.90
19555;DHT22;9924;50.828;6.440;2023-04-03T02:58:25;1.40;99.90
19555;DHT22;9924;50.828;6.440;2023-04-03T03:01:09;1.40;99.90
19555;DHT22;9924;50.828;6.440;2023-04-03T03:03:54;1.30;99.90
19555;DHT22;9924;50.828;6.440;2023-04-03T03:06:39;1.20;99.90
19555;DHT22;9924;50.828;6.440;2023-04-03T03:09:24;1.20;99.90
19555;DHT22;9924;50.828;6.440;2023-04-03T03:12:09;1.30;99.90
19555;DHT22;9924;50.828;6.440;2023-04-03T03:14:54;1.30;99.90
19555;DHT22;9924;50.828;6.440;2023-04-03T03:17:38;1.30;99.90
19555;DHT22;9924;50.828;6.440;2023-04-03T03:20:22;1.20;99.90
19555;DHT22;9924;50.828;6.440;2023-04-03T03:23:07;1.20;99.90
19555;DHT22;9924;50.828;6.440;2023-04-03T03:26:01;1.10;99.90
19555;DHT22;9924;50.828;6.440;2023-04-03T03:28:46;1.10;99.90
19555;DHT22;9924;50.828;6.440;2023-04-03T03:31:30;1.00;99.90
19555;DHT22;9924;50.828;6.440;2023-04-03T03:34:15;0.90;99.90
19555;DHT22;9924;50.828;6.440;2023-04-03T03:36:59;0.90;99.90
19555;DHT22;9924;50.828;6.440;2023-04-03T03:39:44;0.80;99.90
19555;DHT22;9924;50.828;6.440;2023-04-03T03:42:28;0.80;99.90
19555;DHT22;9924;50.828;6.440;2023-04-03T03:45:13;0.80;99.90
19555;DHT22;9924;50.828;6.440;2023-04-03T03:47:58;0.80;99.90
19555;DHT22;9924;50.828;6.440;2023-04-03T03:50:42;0.80;99.90
19555;DHT22;9924;50.828;6.440;2023-04-03T03:53:26;0.70;99.90
19555;DHT22;9924;50.828;6.440;2023-04-03T03:56:11;0.60;99.90
19555;DHT22;9924;50.828;6.440;2023-04-03T03:58:56;0.60;99.90
19555;DHT22;9924;50.828;6.440;2023-04-03T04:01:41;0.50;99.90
19555;DHT22;9924;50.828;6.440;2023-04-03T04:04:26;0.30;99.90
19555;DHT22;9924;50.828;6.440;2023-04-03T04:07:10;0.30;99.90
19555;DHT22;9924;50.828;6.440;2023-04-03T04:09:55;0.20;99.90
19555;DHT22;9924;50.828;6.440;2023-04-03T04:12:39;0.20;99.90
19555;DHT22;9924;50.828;6.440;2023-04-03T04:15:23;0.10;99.90
19555;DHT22;9924;50.828;6.440;2023-04-03T04:18:09;0.10;99.90
19555;DHT22;9924;50.828;6.440;2023-04-03T04:20:55;0.10;99.90
19555;DHT22;9924;50.828;6.440;2023-04-03T04:23:40;0.00;99.90
19555;DHT22;9924;50.828;6.440;2023-04-03T04:26:24;0.00;99.90
19555;DHT22;9924;50.828;6.440;2023-04-03T04:29:09;-0.10;99.90
19555;DHT22;9924;50.828;6.440;2023-04-03T04:31:54;-0.10;99.90
19555;DHT22;9924;50.828;6.440;2023-04-03T04:34:38;-0.10;99.90
19555;DHT22;9924;50.828;6.440;2023-04-03T04:37:22;-0.10;99.90
19555;DHT22;9924;50.828;6.440;2023-04-03T04:40:07;-0.10;99.90
19555;DHT22;9924;50.828;6.440;2023-04-03T04:42:51;-0.20;99.90
19555;DHT22;9924;50.828;6.440;2023-04-03T04:45:36;-0.20;99.90
19555;DHT22;9924;50.828;6.440;2023-04-03T04:48:20;-0.30;99.90
19555;DHT22;9924;50.828;6.440;2023-04-03T04:51:05;-0.40;99.90
19555;DHT22;9924;50.828;6.440;2023-04-03T04:53:49;-0.30;99.90
19555;DHT22;9924;50.828;6.440;2023-04-03T04:56:33;-0.30;99.90
19555;DHT22;9924;50.828;6.440;2023-04-03T04:59:18;-0.30;99.90
19555;DHT22;9924;50.828;6.440;2023-04-03T05:02:02;-0.30;99.90
19555;DHT22;9924;50.828;6.440;2023-04-03T05:04:47;-0.40;99.90
19555;DHT22;9924;50.828;6.440;2023-04-03T05:07:34;-0.40;99.90
19555;DHT22;9924;50.828;6.440;2023-04-03T05:10:19;-0.50;99.90
19555;DHT22;9924;50.828;6.440;2023-04-03T05:13:04;-0.50;99.90
19555;DHT22;9924;50.828;6.440;2023-04-03T05:15:48;-0.50;99.90
19555;DHT22;9924;50.828;6.440;2023-04-03T05:18:33;-0.50;99.90
19555;DHT22;9924;50.828;6.440;2023-04-03T05:21:17;-0.60;99.90
19555;DHT22;9924;50.828;6.440;2023-04-03T05:24:02;-0.60;99.90
19555;DHT22;9924;50.828;6.440;2023-04-03T05:26:47;-0.60;99.90
19555;DHT22;9924;50.828;6.440;2023-04-03T05:29:32;-0.60;99.90
19555;DHT22;9924;50.828;6.440;2023-04-03T05:32:16;-0.60;99.90
19555;DHT22;9924;50.828;6.440;2023-04-03T05:35:00;-0.70;99.90
19555;DHT22;9924;50.828;6.440;2023-04-03T05:37:45;-0.60;99.90
19555;DHT22;9924;50.828;6.440;2023-04-03T05:40:29;-0.60;99.90
19555;DHT22;9924;50.828;6.440;2023-04-03T05:43:14;-0.50;99.90
19555;DHT22;9924;50.828;6.440;2023-04-03T05:45:59;-0.30;99.90
19555;DHT22;9924;50.828;6.440;2023-04-03T05:48:44;-0.20;99.90
19555;DHT22;9924;50.828;6.440;2023-04-03T05:51:32;-0.20;99.90
19555;DHT22;9924;50.828;6.440;2023-04-03T05:54:25;-0.10;99.90
19555;DHT22;9924;50.828;6.440;2023-04-03T05:57:10;-0.10;99.90
19555;DHT22;9924;50.828;6.440;2023-04-03T05:59:55;0.00;99.90
19555;DHT22;9924;50.828;6.440;2023-04-03T06:02:40;0.10;99.90
19555;DHT22;9924;50.828;6.440;2023-04-03T06:05:25;0.20;99.90
19555;DHT22;9924;50.828;6.440;2023-04-03T06:08:10;0.30;99.90
19555;DHT22;9924;50.828;6.440;2023-04-03T06:10:54;0.60;99.90
19555;DHT22;9924;50.828;6.440;2023-04-03T06:13:38;0.80;99.90
19555;DHT22;9924;50.828;6.440;2023-04-03T06:16:23;1.00;99.90
19555;DHT22;9924;50.828;6.440;2023-04-03T06:19:09;1.30;99.90
19555;DHT22;9924;50.828;6.440;2023-04-03T06:21:54;1.60;99.90
19555;DHT22;9924;50.828;6.440;2023-04-03T06:24:38;1.80;99.90
19555;DHT22;9924;50.828;6.440;2023-04-03T06:27:23;2.00;99.90
19555;DHT22;9924;50.828;6.440;2023-04-03T06:30:08;2.30;99.90
19555;DHT22;9924;50.828;6.440;2023-04-03T06:32:52;2.60;99.90
19555;DHT22;9924;50.828;6.440;2023-04-03T06:35:40;2.90;99.90
19555;DHT22;9924;50.828;6.440;2023-04-03T06:38:25;3.20;99.90
19555;DHT22;9924;50.828;6.440;2023-04-03T06:41:10;3.40;99.90
19555;DHT22;9924;50.828;6.440;2023-04-03T06:43:57;3.50;99.90
19555;DHT22;9924;50.828;6.440;2023-04-03T06:46:49;3.70;99.90
19555;DHT22;9924;50.828;6.440;2023-04-03T06:49:33;4.00;99.90
19555;DHT22;9924;50.828;6.440;2023-04-03T06:52:18;4.30;99.90
19555;DHT22;9924;50.828;6.440;2023-04-03T06:55:03;4.60;99.90
19555;DHT22;9924;50.828;6.440;2023-04-03T06:57:48;4.70;99.90
19555;DHT22;9924;50.828;6.440;2023-04-03T07:00:32;4.80;99.90
19555;DHT22;9924;50.828;6.440;2023-04-03T07:03:17;5.00;99.90
19555;DHT22;9924;50.828;6.440;2023-04-03T07:06:07;5.10;99.90
19555;DHT22;9924;50.828;6.440;2023-04-03T07:08:52;5.20;99.90
19555;DHT22;9924;50.828;6.440;2023-04-03T07:11:36;5.30;99.90
19555;DHT22;9924;50.828;6.440;2023-04-03T07:14:20;5.60;99.90
19555;DHT22;9924;50.828;6.440;2023-04-03T07:17:05;5.70;99.90
19555;DHT22;9924;50.828;6.440;2023-04-03T07:19:50;5.80;99.90
19555;DHT22;9924;50.828;6.440;2023-04-03T07:22:37;6.00;99.90
19555;DHT22;9924;50.828;6.440;2023-04-03T07:25:22;6.20;99.90
19555;DHT22;9924;50.828;6.440;2023-04-03T07:28:06;6.40;99.90
19555;DHT22;9924;50.828;6.440;2023-04-03T07:30:54;6.60;99.90
19555;DHT22;9924;50.828;6.440;2023-04-03T07:33:43;6.80;99.90
19555;DHT22;9924;50.828;6.440;2023-04-03T07:36:29;6.90;99.90
19555;DHT22;9924;50.828;6.440;2023-04-03T07:39:17;6.90;99.90
19555;DHT22;9924;50.828;6.440;2023-04-03T07:42:04;7.10;99.90
19555;DHT22;9924;50.828;6.440;2023-04-03T07:44:49;7.30;99.90
19555;DHT22;9924;50.828;6.440;2023-04-03T07:47:35;7.60;99.90
19555;DHT22;9924;50.828;6.440;2023-04-03T07:50:20;7.80;99.90
19555;DHT22;9924;50.828;6.440;2023-04-03T07:53:05;7.90;99.90
19555;DHT22;9924;50.828;6.440;2023-04-03T07:55:50;7.80;99.90
19555;DHT22;9924;50.828;6.440;2023-04-03T07:58:39;7.90;99.90
19555;DHT22;9924;50.828;6.440;2023-04-03T08:01:23;7.90;99.90
19555;DHT22;9924;50.828;6.440;2023-04-03T08:04:08;7.80;99.90
19555;DHT22;9924;50.828;6.440;2023-04-03T08:06:53;8.00;99.90
19555;DHT22;9924;50.828;6.440;2023-04-03T08:09:38;8.20;99.90
19555;DHT22;9924;50.828;6.440;2023-04-03T08:12:22;8.20;99.90
19555;DHT22;9924;50.828;6.440;2023-04-03T08:15:07;8.30;99.90
19555;DHT22;9924;50.828;6.440;2023-04-03T08:17:52;8.40;99.90
19555;DHT22;9924;50.828;6.440;2023-04-03T08:20:38;8.80;99.90
19555;DHT22;9924;50.828;6.440;2023-04-03T08:23:26;8.70;99.90
19555;DHT22;9924;50.828;6.440;2023-04-03T08:26:16;8.40;99.90
19555;DHT22;9924;50.828;6.440;2023-04-03T08:29:00;8.40;99.90
19555;DHT22;9924;50.828;6.440;2023-04-03T08:31:46;8.50;99.90
19555;DHT22;9924;50.828;6.440;2023-04-03T08:34:31;8.70;99.90
19555;DHT22;9924;50.828;6.440;2023-04-03T08:37:19;8.30;99.90
19555;DHT22;9924;50.828;6.440;2023-04-03T08:40:05;8.30;99.90
19555;DHT22;9924;50.828;6.440;2023-04-03T08:43:04;8.30;99.90
19555;DHT22;9924;50.828;6.440;2023-04-03T08:45:55;7.80;99.90
19555;DHT22;9924;50.828;6.440;2023-04-03T08:48:42;7.70;99.90
19555;DHT22;9924;50.828;6.440;2023-04-03T08:51:28;7.80;99.90
19555;DHT22;9924;50.828;6.440;2023-04-03T08:57:40;7.90;99.90
19555;DHT22;9924;50.828;6.440;2023-04-03T09:00:28;7.90;99.90
19555;DHT22;9924;50.828;6.440;2023-04-03T09:03:17;7.60;99.90
19555;DHT22;9924;50.828;6.440;2023-04-03T09:06:11;7.90;99.90
19555;DHT22;9924;50.828;6.440;2023-04-03T09:12:19;8.90;99.90
19555;DHT22;9924;50.828;6.440;2023-04-03T09:18:17;9.40;99.90
19555;DHT22;9924;50.828;6.440;2023-04-03T09:21:23;9.50;99.90
19555;DHT22;9924;50.828;6.440;2023-04-03T09:24:12;9.60;99.90
19555;DHT22;9924;50.828;6.440;2023-04-03T09:27:07;9.80;99.90
19555;DHT22;9924;50.828;6.440;2023-04-03T09:29:55;10.00;99.90
19555;DHT22;9924;50.828;6.440;2023-04-03T09:32:41;10.00;99.90
19555;DHT22;9924;50.828;6.440;2023-04-03T09:35:32;10.20;99.90
19555;DHT22;9924;50.828;6.440;2023-04-03T09:38:21;10.60;99.90
19555;DHT22;9924;50.828;6.440;2023-04-03T09:41:16;10.80;99.90
19555;DHT22;9924;50.828;6.440;2023-04-03T09:44:01;10.60;99.90
19555;DHT22;9924;50.828;6.440;2023-04-03T09:46:46;10.50;99.90
19555;DHT22;9924;50.828;6.440;2023-04-03T09:49:30;10.60;99.90
19555;DHT22;9924;50.828;6.440;2023-04-03T09:52:28;10.70;99.90
19555;DHT22;9924;50.828;6.440;2023-04-03T09:58:29;10.80;99.90
19555;DHT22;9924;50.828;6.440;2023-04-03T10:01:27;11.00;99.90
19555;DHT22;9924;50.828;6.440;2023-04-03T10:04:14;11.30;99.90
19555;DHT22;9924;50.828;6.440;2023-04-03T10:06:59;11.20;99.90
19555;DHT22;9924;50.828;6.440;2023-04-03T10:09:58;10.90;99.90
19555;DHT22;9924;50.828;6.440;2023-04-03T10:12:43;10.90;99.90
19555;DHT22;9924;50.828;6.440;2023-04-03T10:15:28;11.30;99.90
19555;DHT22;9924;50.828;6.440;2023-04-03T10:27:13;11.30;99.90
19555;DHT22;9924;50.828;6.440;2023-04-03T10:45:26;12.10;99.70
19555;DHT22;9924;50.828;6.440;2023-04-03T10:51:33;12.50;97.90
19555;DHT22;9924;50.828;6.440;2023-04-03T10:54:38;12.50;96.50
19555;DHT22;9924;50.828;6.440;2023-04-03T10:57:24;12.50;96.80
19555;DHT22;9924;50.828;6.440;2023-04-03T11:00:19;12.60;99.20
19555;DHT22;9924;50.828;6.440;2023-04-03T11:03:14;12.50;96.90
19555;DHT22;9924;50.828;6.440;2023-04-03T11:06:02;11.80;96.30
19555;DHT22;9924;50.828;6.440;2023-04-03T11:09:00;11.50;97.60
19555;DHT22;9924;50.828;6.440;2023-04-03T11:11:48;11.80;97.60
19555;DHT22;9924;50.828;6.440;2023-04-03T11:14:35;12.00;98.70
19555;DHT22;9924;50.828;6.440;2023-04-03T11:20:18;12.40;94.60
19555;DHT22;9924;50.828;6.440;2023-04-03T11:23:34;12.40;93.50
19555;DHT22;9924;50.828;6.440;2023-04-03T11:26:23;12.50;94.40
19555;DHT22;9924;50.828;6.440;2023-04-03T11:29:14;12.80;94.20
19555;DHT22;9924;50.828;6.440;2023-04-03T11:35:25;13.30;94.10
19555;DHT22;9924;50.828;6.440;2023-04-03T11:38:17;13.10;94.20
19555;DHT22;9924;50.828;6.440;2023-04-03T11:41:06;13.20;93.60
19555;DHT22;9924;50.828;6.440;2023-04-03T11:50:30;13.00;93.00
19555;DHT22;9924;50.828;6.440;2023-04-03T11:56:01;12.60;93.10
19555;DHT22;9924;50.828;6.440;2023-04-03T12:01:58;13.30;91.70
19555;DHT22;9924;50.828;6.440;2023-04-03T12:11:30;14.10;89.80
19555;DHT22;9924;50.828;6.440;2023-04-03T12:14:15;14.10;89.00
19555;DHT22;9924;50.828;6.440;2023-04-03T12:17:00;14.10;90.40
19555;DHT22;9924;50.828;6.440;2023-04-03T12:19:45;14.00;86.30
19555;DHT22;9924;50.828;6.440;2023-04-03T12:22:31;14.20;90.10
19555;DHT22;9924;50.828;6.440;2023-04-03T12:25:46;14.40;88.40
19555;DHT22;9924;50.828;6.440;2023-04-03T12:28:37;14.60;82.60
19555;DHT22;9924;50.828;6.440;2023-04-03T12:31:25;14.60;84.50
19555;DHT22;9924;50.828;6.440;2023-04-03T12:46:38;14.40;79.60
19555;DHT22;9924;50.828;6.440;2023-04-03T12:55:17;15.10;76.20
19555;DHT22;9924;50.828;6.440;2023-04-03T13:01:16;15.20;74.90
19555;DHT22;9924;50.828;6.440;2023-04-03T13:04:02;15.50;77.90
19555;DHT22;9924;50.828;6.440;2023-04-03T13:06:48;16.20;75.60
19555;DHT22;9924;50.828;6.440;2023-04-03T13:09:34;16.40;70.50
19555;DHT22;9924;50.828;6.440;2023-04-03T13:12:19;15.30;72.60
19555;DHT22;9924;50.828;6.440;2023-04-03T13:15:20;15.30;71.80
19555;DHT22;9924;50.828;6.440;2023-04-03T13:21:15;14.90;73.90
19555;DHT22;9924;50.828;6.440;2023-04-03T13:24:02;15.50;73.80
19555;DHT22;9924;50.828;6.440;2023-04-03T13:26:47;15.50;69.60
19555;DHT22;9924;50.828;6.440;2023-04-03T13:29:34;15.70;69.60
19555;DHT22;9924;50.828;6.440;2023-04-03T13:32:22;15.90;69.50
19555;DHT22;9924;50.828;6.440;2023-04-03T13:35:30;16.30;69.40
19555;DHT22;9924;50.828;6.440;2023-04-03T13:38:31;16.30;69.60
19555;DHT22;9924;50.828;6.440;2023-04-03T13:41:46;16.50;69.00
19555;DHT22;9924;50.828;6.440;2023-04-03T13:44:34;16.30;66.90
19555;DHT22;9924;50.828;6.440;2023-04-03T13:47:22;16.30;68.60
19555;DHT22;9924;50.828;6.440;2023-04-03T13:50:17;15.70;68.20
19555;DHT22;9924;50.828;6.440;2023-04-03T13:53:11;16.10;70.00
19555;DHT22;9924;50.828;6.440;2023-04-03T13:56:04;16.00;65.90
19555;DHT22;9924;50.828;6.440;2023-04-03T14:04:49;16.10;65.90
19555;DHT22;9924;50.828;6.440;2023-04-03T14:07:35;16.20;66.10
19555;DHT22;9924;50.828;6.440;2023-04-03T14:10:19;16.40;65.90
19555;DHT22;9924;50.828;6.440;2023-04-03T14:13:04;16.00;64.70
19555;DHT22;9924;50.828;6.440;2023-04-03T14:15:49;15.90;67.60
19555;DHT22;9924;50.828;6.440;2023-04-03T14:18:34;16.00;64.10
19555;DHT22;9924;50.828;6.440;2023-04-03T14:21:20;16.40;63.50
19555;DHT22;9924;50.828;6.440;2023-04-03T14:24:05;16.40;64.10
19555;DHT22;9924;50.828;6.440;2023-04-03T14:26:51;16.10;62.80
19555;DHT22;9924;50.828;6.440;2023-04-03T14:29:36;16.20;66.70
19555;DHT22;9924;50.828;6.440;2023-04-03T14:32:21;16.30;66.90
19555;DHT22;9924;50.828;6.440;2023-04-03T14:35:06;16.40;63.20
19555;DHT22;9924;50.828;6.440;2023-04-03T14:37:51;16.40;66.80
19555;DHT22;9924;50.828;6.440;2023-04-03T14:40:36;16.20;61.70
19555;DHT22;9924;50.828;6.440;2023-04-03T14:43:21;16.00;65.20
19555;DHT22;9924;50.828;6.440;2023-04-03T14:46:19;16.30;65.30
19555;DHT22;9924;50.828;6.440;2023-04-03T14:49:18;16.40;62.90
19555;DHT22;9924;50.828;6.440;2023-04-03T14:52:03;16.40;64.80
19555;DHT22;9924;50.828;6.440;2023-04-03T14:54:48;16.10;62.90
19555;DHT22;9924;50.828;6.440;2023-04-03T14:57:32;15.80;61.60
19555;DHT22;9924;50.828;6.440;2023-04-03T15:00:19;15.80;61.80
19555;DHT22;9924;50.828;6.440;2023-04-03T15:03:04;15.10;63.40
19555;DHT22;9924;50.828;6.440;2023-04-03T15:05:49;14.90;65.60
19555;DHT22;9924;50.828;6.440;2023-04-03T15:08:34;15.30;63.90
19555;DHT22;9924;50.828;6.440;2023-04-03T15:11:18;15.40;61.80
19555;DHT22;9924;50.828;6.440;2023-04-03T15:14:02;15.30;63.50
19555;DHT22;9924;50.828;6.440;2023-04-03T15:16:46;15.30;61.60
19555;DHT22;9924;50.828;6.440;2023-04-03T15:19:36;14.80;63.40
19555;DHT22;9924;50.828;6.440;2023-04-03T15:22:21;15.10;62.40
19555;DHT22;9924;50.828;6.440;2023-04-03T15:25:06;15.00;62.20
19555;DHT22;9924;50.828;6.440;2023-04-03T15:27:50;15.00;63.50
19555;DHT22;9924;50.828;6.440;2023-04-03T15:30:36;15.10;65.90
19555;DHT22;9924;50.828;6.440;2023-04-03T15:33:24;15.70;63.50
19555;DHT22;9924;50.828;6.440;2023-04-03T15:36:09;15.40;63.50
19555;DHT22;9924;50.828;6.440;2023-04-03T15:38:53;15.30;62.60
19555;DHT22;9924;50.828;6.440;2023-04-03T15:41:38;14.70;64.50
19555;DHT22;9924;50.828;6.440;2023-04-03T15:44:22;14.50;63.90
19555;DHT22;9924;50.828;6.440;2023-04-03T15:47:06;14.50;65.40
19555;DHT22;9924;50.828;6.440;2023-04-03T15:49:50;14.50;64.90
19555;DHT22;9924;50.828;6.440;2023-04-03T15:52:35;14.20;65.00
19555;DHT22;9924;50.828;6.440;2023-04-03T15:55:21;14.10;66.10
19555;DHT22;9924;50.828;6.440;2023-04-03T15:58:06;14.10;65.70
19555;DHT22;9924;50.828;6.440;2023-04-03T16:00:50;14.10;64.90
19555;DHT22;9924;50.828;6.440;2023-04-03T16:03:35;14.20;65.50
19555;DHT22;9924;50.828;6.440;2023-04-03T16:06:20;14.60;66.10
19555;DHT22;9924;50.828;6.440;2023-04-03T16:09:04;14.90;64.80
19555;DHT22;9924;50.828;6.440;2023-04-03T16:11:50;14.90;65.30
19555;DHT22;9924;50.828;6.440;2023-04-03T16:14:34;14.80;65.30
19555;DHT22;9924;50.828;6.440;2023-04-03T16:17:19;14.30;67.50
19555;DHT22;9924;50.828;6.440;2023-04-03T16:20:04;13.50;70.40
19555;DHT22;9924;50.828;6.440;2023-04-03T16:22:49;13.10;72.50
19555;DHT22;9924;50.828;6.440;2023-04-03T16:25:34;12.60;73.10
19555;DHT22;9924;50.828;6.440;2023-04-03T16:28:18;12.60;72.50
19555;DHT22;9924;50.828;6.440;2023-04-03T16:31:03;12.40;73.60
19555;DHT22;9924;50.828;6.440;2023-04-03T16:33:49;12.60;73.30
19555;DHT22;9924;50.828;6.440;2023-04-03T16:36:34;12.50;74.10
19555;DHT22;9924;50.828;6.440;2023-04-03T16:39:18;12.20;74.80
19555;DHT22;9924;50.828;6.440;2023-04-03T16:42:03;12.10;75.00
19555;DHT22;9924;50.828;6.440;2023-04-03T16:44:47;12.00;75.70
19555;DHT22;9924;50.828;6.440;2023-04-03T16:47:31;11.90;75.50
19555;DHT22;9924;50.828;6.440;2023-04-03T16:50:15;12.10;75.80
19555;DHT22;9924;50.828;6.440;2023-04-03T16:53:00;11.90;75.70
19555;DHT22;9924;50.828;6.440;2023-04-03T16:55:47;11.70;76.00
19555;DHT22;9924;50.828;6.440;2023-04-03T16:58:31;11.60;77.00
19555;DHT22;9924;50.828;6.440;2023-04-03T17:01:17;11.40;77.70
19555;DHT22;9924;50.828;6.440;2023-04-03T17:04:02;11.50;78.80
19555;DHT22;9924;50.828;6.440;2023-04-03T17:06:46;11.50;78.00
19555;DHT22;9924;50.828;6.440;2023-04-03T17:09:32;11.70;79.10
19555;DHT22;9924;50.828;6.440;2023-04-03T17:12:17;11.30;77.60
19555;DHT22;9924;50.828;6.440;2023-04-03T17:15:01;10.50;79.80
19555;DHT22;9924;50.828;6.440;2023-04-03T17:17:47;10.00;81.80
19555;DHT22;9924;50.828;6.440;2023-04-03T17:20:32;9.60;84.50
19555;DHT22;9924;50.828;6.440;2023-04-03T17:23:18;9.30;86.30
19555;DHT22;9924;50.828;6.440;2023-04-03T17:26:03;9.20;87.50
19555;DHT22;9924;50.828;6.440;2023-04-03T17:28:48;9.10;89.20
19555;DHT22;9924;50.828;6.440;2023-04-03T17:31:33;8.90;90.40
19555;DHT22;9924;50.828;6.440;2023-04-03T17:34:17;8.80;90.90
19555;DHT22;9924;50.828;6.440;2023-04-03T17:37:02;8.70;92.60
19555;DHT22;9924;50.828;6.440;2023-04-03T17:39:47;8.60;93.90
19555;DHT22;9924;50.828;6.440;2023-04-03T17:42:31;8.60;93.30
19555;DHT22;9924;50.828;6.440;2023-04-03T17:45:16;8.50;93.90
19555;DHT22;9924;50.828;6.440;2023-04-03T17:48:00;8.30;94.00
19555;DHT22;9924;50.828;6.440;2023-04-03T17:50:45;8.30;94.80
19555;DHT22;9924;50.828;6.440;2023-04-03T17:53:29;8.20;94.70
19555;DHT22;9924;50.828;6.440;2023-04-03T17:56:17;8.10;95.00
19555;DHT22;9924;50.828;6.440;2023-04-03T17:59:01;8.00;95.50
19555;DHT22;9924;50.828;6.440;2023-04-03T18:01:46;8.00;95.90
19555;DHT22;9924;50.828;6.440;2023-04-03T18:04:30;7.90;97.00
19555;DHT22;9924;50.828;6.440;2023-04-03T18:07:14;7.80;97.40
19555;DHT22;9924;50.828;6.440;2023-04-03T18:09:59;7.70;98.50
19555;DHT22;9924;50.828;6.440;2023-04-03T18:12:43;7.70;99.30
19555;DHT22;9924;50.828;6.440;2023-04-03T18:15:28;7.60;99.90
19555;DHT22;9924;50.828;6.440;2023-04-03T18:18:13;7.50;99.90
19555;DHT22;9924;50.828;6.440;2023-04-03T18:20:59;7.40;99.90
19555;DHT22;9924;50.828;6.440;2023-04-03T18:23:50;7.30;99.90
19555;DHT22;9924;50.828;6.440;2023-04-03T18:26:36;7.30;99.90
19555;DHT22;9924;50.828;6.440;2023-04-03T18:29:21;7.20;99.90
19555;DHT22;9924;50.828;6.440;2023-04-03T18:32:06;7.10;99.90
19555;DHT22;9924;50.828;6.440;2023-04-03T18:34:52;7.10;99.90
19555;DHT22;9924;50.828;6.440;2023-04-03T18:37:37;6.90;99.90
19555;DHT22;9924;50.828;6.440;2023-04-03T18:40:21;6.80;99.90
19555;DHT22;9924;50.828;6.440;2023-04-03T18:43:05;6.80;99.90
19555;DHT22;9924;50.828;6.440;2023-04-03T18:45:50;6.60;99.90
19555;DHT22;9924;50.828;6.440;2023-04-03T18:48:35;6.50;99.90
19555;DHT22;9924;50.828;6.440;2023-04-03T18:51:20;6.40;99.90
19555;DHT22;9924;50.828;6.440;2023-04-03T18:54:05;6.30;99.90
19555;DHT22;9924;50.828;6.440;2023-04-03T18:56:52;6.30;99.90
19555;DHT22;9924;50.828;6.440;2023-04-03T18:59:37;6.20;99.90
19555;DHT22;9924;50.828;6.440;2023-04-03T19:02:21;6.20;99.90
19555;DHT22;9924;50.828;6.440;2023-04-03T19:05:11;6.20;99.90
19555;DHT22;9924;50.828;6.440;2023-04-03T19:07:57;6.10;99.90
19555;DHT22;9924;50.828;6.440;2023-04-03T19:10:41;6.10;99.90
19555;DHT22;9924;50.828;6.440;2023-04-03T19:13:25;6.00;99.90
19555;DHT22;9924;50.828;6.440;2023-04-03T19:16:11;5.90;99.90
19555;DHT22;9924;50.828;6.440;2023-04-03T19:18:55;5.90;99.90
19555;DHT22;9924;50.828;6.440;2023-04-03T19:21:40;5.80;99.90
19555;DHT22;9924;50.828;6.440;2023-04-03T19:24:24;5.80;99.90
19555;DHT22;9924;50.828;6.440;2023-04-03T19:27:09;5.80;99.90
19555;DHT22;9924;50.828;6.440;2023-04-03T19:29:53;5.80;99.90
19555;DHT22;9924;50.828;6.440;2023-04-03T19:32:37;5.70;99.90
19555;DHT22;9924;50.828;6.440;2023-04-03T19:35:22;5.70;99.90